createdAt,value
2022-10-07T00:00:07.030Z,93.23
2022-10-07T00:01:04.197Z,93.19
2022-10-07T00:02:04.154Z,92.88
2022-10-07T00:03:04.095Z,93.08
2022-10-07T00:04:04.077Z,92.57
2022-10-07T00:05:05.034Z,92.88
2022-10-07T00:06:04.049Z,92.43
2022-10-07T00:07:04.074Z,92.47
2022-10-07T00:08:05.032Z,92.47
2022-10-07T00:09:04.535Z,92.12
2022-10-07T00:10:04.017Z,92.98
2022-10-07T00:11:04.018Z,92.47
2022-10-07T00:12:03.987Z,92.16
2022-10-07T00:13:06.126Z,92.68
2022-10-07T00:14:03.984Z,92.27
2022-10-07T00:15:27.533Z,92.68
2022-10-07T00:16:03.952Z,92.36
2022-10-07T00:17:03.982Z,92.47
2022-10-07T00:18:24.930Z,92.51
2022-10-07T00:19:06.539Z,93.02
2022-10-07T00:20:03.919Z,92.72
2022-10-07T00:21:03.895Z,92.93
2022-10-07T00:22:06.539Z,93.13
2022-10-07T00:23:18.546Z,93.27
2022-10-07T00:24:03.887Z,93.02
2022-10-07T00:25:03.851Z,93.27
2022-10-07T00:26:10.535Z,93.02
2022-10-07T00:27:04.533Z,93.07
2022-10-07T00:28:03.873Z,93.33
2022-10-07T00:29:04.533Z,93.07
2022-10-07T00:30:03.837Z,92.93
2022-10-07T00:31:03.872Z,93.54
2022-10-07T00:32:04.538Z,93.02
2022-10-07T00:33:06.538Z,93.38
2022-10-07T00:34:03.743Z,93.48
2022-10-07T00:35:04.536Z,94.10
2022-10-07T00:36:03.753Z,94.10
2022-10-07T00:37:03.748Z,93.89
2022-10-07T00:38:03.713Z,93.68
2022-10-07T00:39:03.704Z,93.38
2022-10-07T00:40:03.705Z,94.20
2022-10-07T00:41:04.554Z,94.36
2022-10-07T00:42:03.665Z,94.20
2022-10-07T00:43:04.674Z,94.15
2022-10-07T00:44:03.644Z,93.89
2022-10-07T00:45:03.635Z,93.44
2022-10-07T00:46:03.960Z,93.44
2022-10-07T00:47:03.611Z,93.23
2022-10-07T00:48:03.604Z,93.33
2022-10-07T00:49:03.603Z,92.93
2022-10-07T00:50:03.579Z,93.13
2022-10-07T00:51:03.574Z,93.54
2022-10-07T00:52:03.590Z,93.59
2022-10-07T00:53:03.573Z,93.95
2022-10-07T00:54:03.534Z,94.26
2022-10-07T00:55:03.536Z,94.10
2022-10-07T00:56:04.037Z,93.68
2022-10-07T00:57:04.567Z,94.10
2022-10-07T00:58:03.508Z,94.10
2022-10-07T00:59:03.502Z,94.40
2022-10-07T01:00:04.033Z,94.40
2022-10-07T01:01:03.596Z,94.46
2022-10-07T01:02:06.126Z,94.15
2022-10-07T01:03:04.037Z,93.95
2022-10-07T01:04:03.563Z,93.74
2022-10-07T01:05:03.425Z,93.95
2022-10-07T01:06:03.402Z,94.26
2022-10-07T01:07:04.036Z,93.74
2022-10-07T01:08:03.379Z,93.33
2022-10-07T01:09:03.572Z,92.98
2022-10-07T01:10:03.358Z,93.80
2022-10-07T01:11:24.356Z,92.98
2022-10-07T01:12:04.036Z,93.49
2022-10-07T01:13:03.331Z,93.19
2022-10-07T01:14:03.340Z,92.82
2022-10-07T01:15:03.310Z,94.32
2022-10-07T01:16:03.316Z,93.02
2022-10-07T01:17:03.329Z,93.19
2022-10-07T01:18:03.291Z,92.88
2022-10-07T01:19:03.256Z,92.88
2022-10-07T01:20:03.269Z,92.88
2022-10-07T01:21:05.316Z,93.29
2022-10-07T01:22:03.235Z,93.74
2022-10-07T01:23:03.223Z,92.93
2022-10-07T01:24:06.038Z,92.72
2022-10-07T01:25:03.208Z,93.02
2022-10-07T01:26:03.204Z,92.82
2022-10-07T01:27:04.028Z,93.74
2022-10-07T01:28:03.217Z,93.54
2022-10-07T01:29:03.156Z,92.97
2022-10-07T01:30:03.153Z,93.13
2022-10-07T01:31:03.193Z,93.38
2022-10-07T01:32:03.133Z,93.89
2022-10-07T01:33:04.048Z,93.48
2022-10-07T01:34:03.118Z,93.48
2022-10-07T01:35:03.564Z,94.30
2022-10-07T01:36:04.039Z,94.10
2022-10-07T01:37:03.062Z,93.89
2022-10-07T01:38:03.057Z,94.51
2022-10-07T01:39:03.053Z,94.61
2022-10-07T01:40:03.075Z,94.30
2022-10-07T01:41:09.537Z,94.20
2022-10-07T01:42:03.014Z,93.99
2022-10-07T01:43:03.537Z,94.10
2022-10-07T01:44:03.543Z,94.40
2022-10-07T01:45:02.995Z,94.71
2022-10-07T01:46:02.979Z,94.20
2022-10-07T01:47:02.959Z,94.10
2022-10-07T01:48:05.541Z,93.85
2022-10-07T01:49:03.071Z,94.40
2022-10-07T01:50:03.556Z,93.85
2022-10-07T01:51:05.543Z,94.05
2022-10-07T01:52:02.903Z,93.95
2022-10-07T01:53:02.894Z,92.82
2022-10-07T01:54:02.874Z,93.74
2022-10-07T01:55:02.880Z,92.93
2022-10-07T01:56:02.865Z,93.33
2022-10-07T01:57:03.539Z,93.44
2022-10-07T01:58:02.870Z,93.95
2022-10-07T01:59:02.835Z,94.26
2022-10-07T02:00:02.839Z,94.15
2022-10-07T02:01:02.851Z,94.30
2022-10-07T02:02:02.803Z,93.95
2022-10-07T02:03:02.784Z,94.05
2022-10-07T02:04:03.608Z,93.74
2022-10-07T02:05:05.561Z,93.64
2022-10-07T02:06:02.772Z,93.13
2022-10-07T02:07:02.768Z,93.54
2022-10-07T02:08:04.032Z,93.85
2022-10-07T02:09:05.542Z,93.23
2022-10-07T02:10:23.702Z,93.85
2022-10-07T02:11:03.716Z,93.02
2022-10-07T02:12:02.685Z,93.23
2022-10-07T02:13:03.066Z,93.44
2022-10-07T02:14:02.664Z,92.93
2022-10-07T02:15:02.652Z,92.93
2022-10-07T02:16:02.800Z,92.72
2022-10-07T02:17:02.649Z,92.82
2022-10-07T02:18:02.634Z,92.61
2022-10-07T02:19:02.607Z,93.13
2022-10-07T02:20:04.582Z,93.07
2022-10-07T02:21:02.603Z,93.54
2022-10-07T02:22:04.577Z,93.02
2022-10-07T02:23:02.567Z,93.64
2022-10-07T02:24:02.564Z,94.05
2022-10-07T02:25:02.547Z,94.05
2022-10-07T02:26:02.529Z,94.51
2022-10-07T02:27:03.051Z,94.15
2022-10-07T02:28:05.125Z,94.46
2022-10-07T02:29:02.510Z,94.10
2022-10-07T02:30:09.047Z,93.48
2022-10-07T02:31:09.136Z,93.99
2022-10-07T02:32:02.485Z,94.51
2022-10-07T02:33:02.449Z,94.20
2022-10-07T02:34:02.473Z,94.30
2022-10-07T02:35:02.566Z,93.79
2022-10-07T02:36:23.552Z,94.40
2022-10-07T02:37:02.408Z,94.20
2022-10-07T02:38:05.034Z,93.89
2022-10-07T02:39:03.042Z,94.40
2022-10-07T02:40:02.382Z,93.79
2022-10-07T02:41:02.568Z,93.89
2022-10-07T02:42:05.050Z,93.59
2022-10-07T02:43:02.339Z,94.20
2022-10-07T02:44:02.336Z,94.51
2022-10-07T02:45:02.338Z,94.40
2022-10-07T02:46:03.140Z,94.20
2022-10-07T02:47:02.303Z,94.51
2022-10-07T02:48:03.052Z,93.89
2022-10-07T02:49:02.274Z,94.76
2022-10-07T02:50:02.294Z,93.89
2022-10-07T02:51:05.039Z,94.20
2022-10-07T02:52:02.281Z,94.61
2022-10-07T02:53:17.050Z,94.30
2022-10-07T02:54:03.042Z,94.34
2022-10-07T02:55:02.571Z,94.45
2022-10-07T02:56:03.238Z,94.34
2022-10-07T02:57:02.188Z,94.45
2022-10-07T02:58:02.182Z,94.24
2022-10-07T02:59:03.063Z,94.24
2022-10-07T03:00:03.565Z,94.55
2022-10-07T03:01:03.054Z,94.55
2022-10-07T03:02:05.109Z,95.27
2022-10-07T03:03:02.143Z,95.42
2022-10-07T03:04:02.206Z,95.37
2022-10-07T03:05:02.102Z,95.37
2022-10-07T03:06:03.040Z,95.37
2022-10-07T03:07:03.078Z,95.68
2022-10-07T03:08:02.085Z,95.89
2022-10-07T03:09:17.050Z,95.37
2022-10-07T03:10:05.044Z,95.57
2022-10-07T03:11:02.034Z,95.68
2022-10-07T03:12:02.044Z,95.32
2022-10-07T03:13:02.076Z,95.06
2022-10-07T03:14:02.542Z,95.57
2022-10-07T03:15:01.999Z,94.85
2022-10-07T03:16:02.097Z,95.12
2022-10-07T03:17:04.553Z,95.02
2022-10-07T03:18:01.960Z,94.81
2022-10-07T03:19:02.071Z,94.92
2022-10-07T03:20:01.957Z,94.40
2022-10-07T03:21:01.929Z,95.02
2022-10-07T03:22:01.916Z,94.92
2022-10-07T03:23:01.935Z,95.02
2022-10-07T03:24:01.934Z,95.43
2022-10-07T03:25:01.890Z,94.40
2022-10-07T03:26:04.549Z,94.61
2022-10-07T03:27:01.863Z,94.92
2022-10-07T03:28:01.906Z,94.92
2022-10-07T03:29:04.617Z,95.02
2022-10-07T03:30:01.833Z,95.02
2022-10-07T03:31:01.834Z,94.81
2022-10-07T03:32:04.542Z,95.02
2022-10-07T03:33:04.150Z,94.92
2022-10-07T03:34:02.072Z,95.23
2022-10-07T03:35:01.779Z,95.23
2022-10-07T03:36:04.543Z,95.12
2022-10-07T03:37:01.752Z,95.32
2022-10-07T03:38:01.752Z,95.12
2022-10-07T03:39:04.566Z,95.02
2022-10-07T03:40:08.548Z,94.92
2022-10-07T03:41:02.572Z,95.23
2022-10-07T03:42:01.702Z,94.92
2022-10-07T03:43:01.689Z,95.02
2022-10-07T03:44:04.544Z,95.23
2022-10-07T03:45:02.748Z,94.30
2022-10-07T03:46:01.711Z,94.92
2022-10-07T03:47:02.080Z,95.32
2022-10-07T03:48:01.639Z,95.23
2022-10-07T03:49:01.635Z,94.81
2022-10-07T03:50:02.550Z,95.12
2022-10-07T03:51:01.617Z,95.12
2022-10-07T03:52:01.617Z,95.17
2022-10-07T03:53:01.595Z,95.02
2022-10-07T03:54:02.560Z,95.32
2022-10-07T03:55:02.563Z,95.47
2022-10-07T03:56:01.553Z,95.47
2022-10-07T03:57:01.552Z,95.27
2022-10-07T03:58:01.522Z,95.32
2022-10-07T03:59:01.532Z,95.17
2022-10-07T04:00:01.503Z,95.17
2022-10-07T04:01:01.495Z,95.06
2022-10-07T04:02:02.578Z,95.47
2022-10-07T04:03:04.066Z,95.43
2022-10-07T04:04:01.616Z,95.32
2022-10-07T04:05:01.445Z,95.37
2022-10-07T04:06:01.435Z,95.53
2022-10-07T04:07:01.424Z,94.96
2022-10-07T04:08:01.409Z,95.12
2022-10-07T04:09:01.399Z,95.43
2022-10-07T04:10:01.581Z,95.57
2022-10-07T04:11:02.071Z,94.81
2022-10-07T04:12:01.368Z,95.23
2022-10-07T04:13:01.366Z,95.27
2022-10-07T04:14:01.364Z,95.27
2022-10-07T04:15:01.344Z,95.68
2022-10-07T04:16:01.420Z,95.02
2022-10-07T04:17:01.320Z,95.02
2022-10-07T04:18:01.309Z,95.32
2022-10-07T04:19:02.061Z,95.84
2022-10-07T04:20:01.296Z,95.43
2022-10-07T04:21:01.275Z,95.43
2022-10-07T04:22:07.603Z,95.53
2022-10-07T04:23:03.055Z,95.32
2022-10-07T04:24:01.258Z,95.27
2022-10-07T04:25:01.229Z,95.23
2022-10-07T04:26:23.071Z,95.23
2022-10-07T04:27:09.096Z,95.07
2022-10-07T04:28:01.491Z,94.98
2022-10-07T04:29:01.195Z,94.98
2022-10-07T04:30:01.209Z,95.18
2022-10-07T04:31:01.249Z,94.87
2022-10-07T04:32:01.157Z,95.02
2022-10-07T04:33:01.141Z,95.39
2022-10-07T04:34:01.105Z,94.87
2022-10-07T04:35:01.121Z,95.18
2022-10-07T04:36:04.041Z,95.12
2022-10-07T04:37:01.428Z,95.02
2022-10-07T04:38:01.075Z,95.32
2022-10-07T04:39:04.062Z,94.81
2022-10-07T04:40:01.450Z,95.18
2022-10-07T04:41:01.053Z,95.18
2022-10-07T04:42:01.063Z,95.18
2022-10-07T04:43:01.055Z,95.18
2022-10-07T04:44:01.549Z,94.56
2022-10-07T04:45:03.554Z,94.56
2022-10-07T04:46:00.994Z,94.67
2022-10-07T04:47:01.167Z,94.36
2022-10-07T04:48:01.082Z,94.56
2022-10-07T04:49:00.967Z,94.67
2022-10-07T04:50:02.023Z,94.26
2022-10-07T04:51:00.948Z,94.36
2022-10-07T04:52:01.554Z,94.51
2022-10-07T04:53:00.938Z,94.46
2022-10-07T04:54:00.930Z,94.36
2022-10-07T04:55:00.896Z,94.56
2022-10-07T04:56:00.894Z,94.05
2022-10-07T04:57:00.904Z,94.15
2022-10-07T04:58:00.883Z,94.51
2022-10-07T04:59:00.850Z,94.05
2022-10-07T05:00:01.559Z,94.15
2022-10-07T05:01:00.939Z,93.85
2022-10-07T05:02:03.589Z,94.30
2022-10-07T05:03:00.819Z,94.36
2022-10-07T05:04:21.808Z,94.05
2022-10-07T05:05:00.786Z,94.40
2022-10-07T05:06:05.206Z,94.30
2022-10-07T05:07:00.784Z,94.30
2022-10-07T05:08:01.546Z,94.40
2022-10-07T05:09:00.745Z,94.30
2022-10-07T05:10:00.727Z,94.20
2022-10-07T05:11:01.552Z,94.40
2022-10-07T05:12:01.541Z,94.51
2022-10-07T05:13:00.721Z,94.92
2022-10-07T05:14:03.567Z,94.85
2022-10-07T05:15:00.701Z,95.32
2022-10-07T05:16:00.732Z,95.37
2022-10-07T05:17:07.553Z,95.57
2022-10-07T05:18:00.675Z,95.17
2022-10-07T05:19:02.587Z,95.23
2022-10-07T05:20:02.578Z,95.17
2022-10-07T05:21:00.611Z,95.47
2022-10-07T05:22:00.599Z,94.81
2022-10-07T05:23:07.554Z,95.27
2022-10-07T05:24:01.575Z,95.06
2022-10-07T05:25:00.574Z,95.17
2022-10-07T05:26:07.547Z,95.27
2022-10-07T05:27:00.553Z,95.17
2022-10-07T05:28:00.596Z,95.17
2022-10-07T05:29:00.529Z,95.06
2022-10-07T05:30:00.562Z,95.06
2022-10-07T05:31:00.523Z,94.96
2022-10-07T05:32:04.836Z,96.40
2022-10-07T05:33:01.044Z,95.98
2022-10-07T05:34:01.077Z,96.50
2022-10-07T05:35:00.462Z,95.89
2022-10-07T05:36:01.054Z,96.40
2022-10-07T05:37:07.052Z,96.25
2022-10-07T05:38:00.452Z,95.27
2022-10-07T05:39:01.050Z,95.17
2022-10-07T05:40:00.414Z,95.23
2022-10-07T05:41:00.405Z,95.53
2022-10-07T05:42:00.423Z,95.43
2022-10-07T05:43:00.376Z,94.71
2022-10-07T05:44:00.359Z,94.96
2022-10-07T05:45:01.061Z,95.12
2022-10-07T05:46:00.419Z,95.27
2022-10-07T05:47:01.056Z,94.40
2022-10-07T05:48:00.334Z,95.32
2022-10-07T05:49:00.307Z,95.32
2022-10-07T05:50:00.289Z,95.12
2022-10-07T05:51:00.291Z,95.32
2022-10-07T05:52:00.275Z,95.02
2022-10-07T05:53:03.059Z,95.32
2022-10-07T05:54:00.269Z,95.43
2022-10-07T05:55:00.239Z,94.92
2022-10-07T05:56:01.055Z,94.81
2022-10-07T05:57:00.234Z,95.47
2022-10-07T05:58:01.055Z,95.02
2022-10-07T05:59:00.211Z,95.43
2022-10-07T06:00:00.190Z,95.23
2022-10-07T06:01:05.396Z,95.43
2022-10-07T06:02:01.301Z,94.81
2022-10-07T06:03:00.314Z,95.12
2022-10-07T06:04:00.167Z,94.30
2022-10-07T06:05:00.145Z,94.61
2022-10-07T06:06:00.140Z,94.61
2022-10-07T06:07:00.126Z,94.51
2022-10-07T06:08:00.101Z,94.40
2022-10-07T06:09:01.048Z,94.40
2022-10-07T06:10:00.113Z,94.40
2022-10-07T06:11:00.084Z,94.30
2022-10-07T06:12:00.085Z,94.40
2022-10-07T06:13:00.104Z,94.92
2022-10-07T06:14:00.032Z,94.81
2022-10-07T06:15:00.562Z,94.81
2022-10-07T06:16:00.030Z,95.07
2022-10-07T06:17:00.611Z,94.36
2022-10-07T06:18:00.102Z,94.56
2022-10-07T06:19:00.054Z,94.67
2022-10-07T06:20:00.554Z,94.67
2022-10-07T06:21:00.551Z,94.36
2022-10-07T06:22:27.555Z,94.67
2022-10-07T06:22:59.930Z,94.51
2022-10-07T06:23:59.954Z,94.51
2022-10-07T06:24:59.910Z,94.26
2022-10-07T06:25:59.905Z,94.36
2022-10-07T06:27:00.564Z,94.26
2022-10-07T06:28:00.618Z,94.26
2022-10-07T06:28:59.869Z,94.15
2022-10-07T06:29:59.883Z,94.56
2022-10-07T06:30:59.932Z,94.56
2022-10-07T06:32:00.556Z,94.36
2022-10-07T06:33:02.668Z,94.26
2022-10-07T06:33:59.816Z,94.32
2022-10-07T06:35:00.548Z,94.15
2022-10-07T06:36:04.275Z,94.46
2022-10-07T06:37:14.558Z,94.42
2022-10-07T06:38:00.551Z,94.56
2022-10-07T06:39:02.556Z,94.32
2022-10-07T06:40:00.554Z,94.32
2022-10-07T06:40:59.747Z,93.60
2022-10-07T06:41:59.742Z,93.19
2022-10-07T06:42:59.702Z,93.60
2022-10-07T06:43:59.707Z,93.80
2022-10-07T06:44:59.690Z,93.90
2022-10-07T06:46:00.159Z,94.01
2022-10-07T06:46:59.670Z,93.29
2022-10-07T06:47:59.658Z,94.01
2022-10-07T06:49:00.094Z,93.49
2022-10-07T06:49:59.639Z,92.88
2022-10-07T06:50:59.622Z,92.83
2022-10-07T06:51:59.634Z,92.94
2022-10-07T06:52:59.615Z,93.15
2022-10-07T06:53:59.619Z,92.94
2022-10-07T06:54:59.583Z,92.94
2022-10-07T06:55:59.573Z,92.83
2022-10-07T06:56:59.563Z,93.04
2022-10-07T06:57:59.714Z,92.94
2022-10-07T06:58:59.566Z,93.04
2022-10-07T06:59:59.556Z,92.90
2022-10-07T07:01:00.107Z,92.90
2022-10-07T07:02:06.087Z,93.00
2022-10-07T07:02:59.497Z,93.10
2022-10-07T07:03:59.487Z,93.10
2022-10-07T07:04:59.603Z,92.59
2022-10-07T07:05:59.491Z,92.59
2022-10-07T07:06:59.453Z,92.49
2022-10-07T07:07:59.444Z,91.36
2022-10-07T07:08:59.436Z,91.46
2022-10-07T07:09:59.444Z,91.87
2022-10-07T07:11:00.057Z,92.34
2022-10-07T07:11:59.399Z,91.52
2022-10-07T07:13:06.064Z,91.42
2022-10-07T07:13:59.372Z,91.11
2022-10-07T07:14:59.379Z,91.73
2022-10-07T07:15:59.353Z,91.93
2022-10-07T07:16:59.359Z,91.01
2022-10-07T07:18:00.071Z,91.63
2022-10-07T07:19:02.055Z,91.63
2022-10-07T07:19:59.317Z,91.27
2022-10-07T07:20:59.593Z,91.48
2022-10-07T07:21:59.293Z,91.38
2022-10-07T07:23:00.061Z,91.78
2022-10-07T07:23:59.269Z,91.58
2022-10-07T07:25:00.557Z,90.97
2022-10-07T07:26:00.056Z,91.07
2022-10-07T07:26:59.255Z,91.44
2022-10-07T07:27:59.287Z,91.23
2022-10-07T07:29:20.214Z,91.23
2022-10-07T07:30:06.061Z,91.54
2022-10-07T07:31:00.268Z,91.33
2022-10-07T07:31:59.206Z,91.64
2022-10-07T07:32:59.175Z,91.44
2022-10-07T07:34:06.047Z,91.19
2022-10-07T07:35:02.057Z,90.62
2022-10-07T07:35:59.140Z,90.47
2022-10-07T07:37:00.199Z,90.58
2022-10-07T07:37:59.138Z,90.37
2022-10-07T07:38:59.128Z,90.37
2022-10-07T07:39:59.086Z,90.58
2022-10-07T07:40:59.079Z,90.84
2022-10-07T07:41:59.072Z,90.78
2022-10-07T07:42:59.088Z,90.53
2022-10-07T07:43:59.050Z,90.43
2022-10-07T07:44:59.042Z,90.23
2022-10-07T07:45:59.072Z,90.33
2022-10-07T07:46:59.548Z,90.33
2022-10-07T07:47:59.030Z,90.33
2022-10-07T07:48:59.013Z,90.12
2022-10-07T07:49:59.082Z,89.72
2022-10-07T07:50:58.971Z,89.67
2022-10-07T07:52:01.555Z,89.78
2022-10-07T07:53:05.576Z,89.47
2022-10-07T07:53:59.552Z,89.06
2022-10-07T07:54:58.969Z,88.96
2022-10-07T07:55:58.915Z,88.55
2022-10-07T07:56:58.899Z,88.92
2022-10-07T07:57:59.550Z,88.61
2022-10-07T07:59:01.560Z,88.20
2022-10-07T07:59:58.873Z,88.10
2022-10-07T08:00:59.968Z,88.31
2022-10-07T08:01:58.846Z,88.98
2022-10-07T08:02:59.556Z,88.67
2022-10-07T08:03:58.834Z,88.06
2022-10-07T08:04:58.825Z,88.47
2022-10-07T08:05:58.802Z,88.37
2022-10-07T08:06:59.082Z,87.96
2022-10-07T08:07:59.549Z,87.76
2022-10-07T08:08:58.791Z,87.51
2022-10-07T08:09:58.805Z,87.00
2022-10-07T08:10:58.757Z,87.20
2022-10-07T08:11:59.563Z,87.30
2022-10-07T08:12:59.569Z,87.92
2022-10-07T08:13:58.712Z,87.82
2022-10-07T08:14:58.731Z,87.71
2022-10-07T08:15:59.127Z,87.61
2022-10-07T08:17:01.557Z,87.67
2022-10-07T08:18:04.086Z,86.65
2022-10-07T08:18:58.672Z,86.55
2022-10-07T08:19:58.653Z,86.35
2022-10-07T08:20:58.665Z,85.94
2022-10-07T08:21:58.644Z,86.41
2022-10-07T08:22:59.123Z,85.60
2022-10-07T08:23:58.620Z,85.90
2022-10-07T08:24:58.649Z,86.30
2022-10-07T08:25:58.589Z,86.21
2022-10-07T08:26:58.601Z,85.90
2022-10-07T08:27:59.614Z,85.86
2022-10-07T08:29:01.077Z,86.06
2022-10-07T08:29:58.547Z,85.96
2022-10-07T08:30:58.548Z,84.94
2022-10-07T08:31:58.519Z,84.64
2022-10-07T08:33:01.534Z,84.12
2022-10-07T08:33:58.500Z,84.03
2022-10-07T08:34:58.499Z,84.03
2022-10-07T08:35:58.485Z,84.53
2022-10-07T08:36:58.491Z,83.89
2022-10-07T08:37:58.459Z,83.37
2022-10-07T08:38:58.443Z,83.78
2022-10-07T08:39:58.433Z,83.68
2022-10-07T08:40:59.082Z,83.68
2022-10-07T08:41:58.444Z,84.19
2022-10-07T08:42:58.406Z,83.48
2022-10-07T08:44:01.048Z,84.45
2022-10-07T08:44:58.372Z,83.95
2022-10-07T08:45:58.405Z,83.54
2022-10-07T08:46:58.359Z,82.93
2022-10-07T08:47:58.355Z,83.13
2022-10-07T08:48:58.371Z,83.54
2022-10-07T08:49:58.348Z,83.34
2022-10-07T08:51:01.063Z,83.23
2022-10-07T08:51:58.299Z,83.54
2022-10-07T08:52:58.292Z,82.62
2022-10-07T08:53:59.058Z,82.48
2022-10-07T08:54:58.612Z,83.20
2022-10-07T08:55:58.588Z,82.89
2022-10-07T08:56:58.377Z,82.79
2022-10-07T08:57:59.059Z,82.45
2022-10-07T08:58:58.229Z,82.24
2022-10-07T09:00:01.057Z,83.67
2022-10-07T09:01:01.059Z,82.85
2022-10-07T09:02:01.062Z,81.53
2022-10-07T09:02:58.247Z,82.75
2022-10-07T09:03:59.054Z,82.54
2022-10-07T09:04:58.175Z,83.67
2022-10-07T09:05:59.105Z,83.12
2022-10-07T09:06:58.153Z,82.51
2022-10-07T09:07:58.126Z,82.71
2022-10-07T09:08:58.117Z,82.51
2022-10-07T09:09:59.057Z,82.31
2022-10-07T09:10:58.121Z,81.25
2022-10-07T09:12:01.059Z,80.94
2022-10-07T09:12:58.129Z,81.56
2022-10-07T09:13:58.589Z,81.05
2022-10-07T09:14:58.560Z,80.94
2022-10-07T09:15:58.573Z,80.71
2022-10-07T09:16:58.566Z,80.80
2022-10-07T09:17:58.595Z,80.40
2022-10-07T09:19:04.565Z,80.10
2022-10-07T09:19:58.566Z,81.01
2022-10-07T09:20:58.561Z,80.71
2022-10-07T09:21:58.611Z,80.91
2022-10-07T09:23:04.561Z,79.99
2022-10-07T09:23:59.597Z,80.80
2022-10-07T09:25:09.013Z,80.66
2022-10-07T09:25:58.946Z,80.16
2022-10-07T09:26:59.628Z,79.79
2022-10-07T09:28:04.638Z,79.14
2022-10-07T09:29:00.564Z,79.85
2022-10-07T09:29:59.599Z,80.06
2022-10-07T09:31:00.605Z,79.25
2022-10-07T09:32:00.576Z,78.74
2022-10-07T09:33:12.560Z,79.85
2022-10-07T09:34:19.560Z,79.14
2022-10-07T09:35:01.090Z,79.35
2022-10-07T09:36:18.836Z,79.96
2022-10-07T09:37:00.557Z,79.65
2022-10-07T09:38:00.570Z,79.65
2022-10-07T09:39:04.569Z,79.35
2022-10-07T09:39:58.088Z,79.51
2022-10-07T09:40:57.774Z,79.61
2022-10-07T09:41:57.757Z,79.82
2022-10-07T09:42:57.746Z,78.77
2022-10-07T09:43:57.747Z,78.30
2022-10-07T09:44:57.741Z,77.59
2022-10-07T09:45:57.750Z,78.30
2022-10-07T09:46:57.730Z,78.36
2022-10-07T09:47:57.692Z,77.65
2022-10-07T09:48:57.673Z,78.16
2022-10-07T09:49:57.679Z,78.42
2022-10-07T09:50:57.676Z,78.73
2022-10-07T09:52:00.571Z,77.61
2022-10-07T09:52:57.627Z,77.51
2022-10-07T09:53:57.618Z,78.12
2022-10-07T09:54:57.616Z,78.12
2022-10-07T09:55:57.621Z,77.88
2022-10-07T09:56:57.610Z,78.59
2022-10-07T09:57:58.575Z,77.88
2022-10-07T09:58:57.564Z,77.88
2022-10-07T09:59:57.582Z,77.95
2022-10-07T10:00:57.542Z,77.24
2022-10-07T10:01:57.630Z,76.63
2022-10-07T10:03:00.168Z,76.53
2022-10-07T10:04:01.080Z,76.03
2022-10-07T10:04:57.506Z,76.03
2022-10-07T10:05:58.070Z,75.11
2022-10-07T10:06:57.480Z,74.00
2022-10-07T10:08:12.089Z,75.21
2022-10-07T10:08:57.485Z,75.31
2022-10-07T10:09:57.449Z,75.52
2022-10-07T10:11:12.065Z,75.31
2022-10-07T10:12:57.430Z,74.07
2022-10-07T10:13:57.453Z,74.67
2022-10-07T10:14:57.390Z,73.52
2022-10-07T10:15:57.459Z,73.22
2022-10-07T10:16:57.368Z,73.63
2022-10-07T10:18:04.211Z,72.72
2022-10-07T10:18:57.372Z,72.72
2022-10-07T10:19:57.338Z,72.11
2022-10-07T10:21:03.122Z,72.31
2022-10-07T10:21:57.321Z,72.48
2022-10-07T10:23:04.064Z,70.66
2022-10-07T10:23:58.083Z,71.77
2022-10-07T10:24:57.310Z,72.08
2022-10-07T10:25:57.269Z,72.85
2022-10-07T10:26:58.066Z,71.77
2022-10-07T10:27:58.114Z,71.97
2022-10-07T10:28:58.073Z,71.87
2022-10-07T10:29:57.263Z,72.48
2022-10-07T10:30:57.341Z,72.88
2022-10-07T10:31:57.223Z,73.46
2022-10-07T10:32:57.204Z,73.22
2022-10-07T10:33:57.178Z,72.21
2022-10-07T10:34:58.115Z,73.22
2022-10-07T10:36:00.082Z,71.60
2022-10-07T10:36:58.208Z,71.33
2022-10-07T10:37:58.089Z,71.23
2022-10-07T10:38:57.141Z,71.23
2022-10-07T10:39:57.124Z,70.62
2022-10-07T10:40:57.127Z,72.61
2022-10-07T10:41:58.067Z,71.60
2022-10-07T10:42:58.069Z,72.71
2022-10-07T10:44:11.575Z,72.00
2022-10-07T10:45:11.605Z,70.39
2022-10-07T10:45:57.097Z,71.00
2022-10-07T10:46:57.613Z,71.40
2022-10-07T10:47:57.588Z,72.11
2022-10-07T10:48:57.019Z,71.30
2022-10-07T10:49:57.101Z,71.20
2022-10-07T10:50:57.574Z,71.17
2022-10-07T10:51:57.100Z,71.57
2022-10-07T10:52:56.979Z,71.17
2022-10-07T10:53:56.963Z,69.95
2022-10-07T10:54:56.954Z,70.26
2022-10-07T10:55:59.570Z,70.06
2022-10-07T10:56:57.104Z,69.78
2022-10-07T10:58:00.535Z,69.28
2022-10-07T10:59:11.591Z,69.85
2022-10-07T10:59:57.576Z,69.35
2022-10-07T11:00:59.728Z,69.04
2022-10-07T11:01:56.932Z,69.52
2022-10-07T11:02:57.136Z,68.51
2022-10-07T11:03:56.890Z,68.61
2022-10-07T11:04:57.578Z,68.30
2022-10-07T11:05:57.575Z,68.95
2022-10-07T11:06:56.834Z,68.81
2022-10-07T11:07:56.833Z,68.61
2022-10-07T11:08:56.809Z,69.38
2022-10-07T11:09:56.787Z,68.10
2022-10-07T11:10:57.582Z,68.37
2022-10-07T11:11:56.785Z,69.01
2022-10-07T11:12:57.582Z,67.67
2022-10-07T11:13:56.772Z,67.90
2022-10-07T11:14:57.879Z,68.04
2022-10-07T11:15:57.622Z,68.54
2022-10-07T11:16:57.582Z,68.51
2022-10-07T11:17:56.707Z,68.30
2022-10-07T11:18:57.074Z,68.01
2022-10-07T11:19:56.704Z,68.27
2022-10-07T11:20:56.683Z,67.60
2022-10-07T11:22:17.665Z,67.77
2022-10-07T11:22:56.663Z,67.87
2022-10-07T11:23:57.097Z,68.17
2022-10-07T11:24:56.626Z,67.97
2022-10-07T11:25:56.630Z,67.47
2022-10-07T11:26:57.109Z,67.90
2022-10-07T11:27:56.625Z,67.27
2022-10-07T11:28:56.597Z,66.96
2022-10-07T11:29:57.078Z,66.96
2022-10-07T11:31:11.117Z,67.80
2022-10-07T11:31:56.571Z,66.76
2022-10-07T11:32:56.553Z,68.77
2022-10-07T11:33:57.083Z,68.07
2022-10-07T11:34:56.531Z,67.84
2022-10-07T11:35:57.094Z,67.03
2022-10-07T11:36:56.618Z,66.63
2022-10-07T11:37:56.489Z,66.63
2022-10-07T11:38:56.479Z,66.73
2022-10-07T11:39:56.609Z,66.73
2022-10-07T11:40:56.461Z,66.13
2022-10-07T11:41:56.440Z,67.27
2022-10-07T11:42:57.085Z,67.67
2022-10-07T11:43:56.419Z,67.67
2022-10-07T11:44:56.617Z,68.54
2022-10-07T11:46:05.747Z,66.83
2022-10-07T11:46:56.456Z,67.54
2022-10-07T11:47:56.374Z,67.91
2022-10-07T11:48:56.372Z,66.30
2022-10-07T11:49:56.355Z,66.19
2022-10-07T11:50:56.606Z,66.09
2022-10-07T11:51:59.102Z,66.13
2022-10-07T11:52:56.606Z,66.30
2022-10-07T11:53:59.085Z,66.09
2022-10-07T11:54:59.082Z,66.19
2022-10-07T11:55:57.085Z,65.89
2022-10-07T11:56:57.083Z,65.49
2022-10-07T11:57:59.091Z,65.39
2022-10-07T11:59:10.614Z,66.50
2022-10-07T11:59:56.243Z,66.87
2022-10-07T12:00:56.266Z,65.76
2022-10-07T12:01:59.150Z,65.16
2022-10-07T12:02:56.309Z,66.06
2022-10-07T12:03:56.196Z,65.26
2022-10-07T12:04:56.195Z,65.76
2022-10-07T12:05:57.079Z,65.93
2022-10-07T12:06:56.180Z,65.22
2022-10-07T12:07:59.156Z,65.12
2022-10-07T12:08:56.143Z,65.39
2022-10-07T12:09:56.140Z,63.92
2022-10-07T12:10:57.088Z,65.12
2022-10-07T12:11:56.113Z,65.02
2022-10-07T12:12:56.133Z,64.25
2022-10-07T12:13:56.092Z,65.26
2022-10-07T12:14:56.079Z,66.36
2022-10-07T12:15:56.149Z,66.03
2022-10-07T12:16:56.079Z,66.27
2022-10-07T12:17:56.111Z,65.56
2022-10-07T12:18:56.043Z,65.06
2022-10-07T12:19:58.589Z,65.86
2022-10-07T12:21:02.594Z,65.56
2022-10-07T12:21:56.003Z,63.82
2022-10-07T12:22:56.031Z,63.54
2022-10-07T12:23:56.000Z,65.42
2022-10-07T12:24:56.594Z,64.75
2022-10-07T12:25:55.958Z,64.82
2022-10-07T12:26:56.596Z,63.62
2022-10-07T12:27:55.957Z,64.62
2022-10-07T12:28:55.952Z,64.65
2022-10-07T12:29:56.590Z,65.76
2022-10-07T12:30:56.590Z,64.12
2022-10-07T12:31:56.005Z,64.72
2022-10-07T12:32:56.594Z,64.92
2022-10-07T12:33:56.115Z,64.82
2022-10-07T12:34:59.621Z,64.72
2022-10-07T12:35:56.594Z,63.71
2022-10-07T12:36:58.589Z,63.82
2022-10-07T12:37:56.585Z,63.92
2022-10-07T12:38:56.142Z,64.22
2022-10-07T12:39:56.618Z,65.22
2022-10-07T12:40:58.594Z,64.92
2022-10-07T12:42:10.591Z,64.82
2022-10-07T12:42:55.780Z,64.82
2022-10-07T12:43:55.783Z,64.22
2022-10-07T12:44:56.118Z,64.89
2022-10-07T12:45:56.648Z,65.16
2022-10-07T12:46:56.591Z,65.26
2022-10-07T12:47:55.730Z,63.82
2022-10-07T12:48:56.600Z,64.70
2022-10-07T12:49:57.624Z,63.59
2022-10-07T12:50:55.694Z,61.91
2022-10-07T12:51:55.675Z,63.02
2022-10-07T12:52:56.598Z,63.02